Time,TemperatureF,DewpointF,PressureIn,WindDirection,WindDirectionDegrees,WindSpeedMPH,WindSpeedGustMPH,Humidity,HourlyPrecipIn,Conditions,Clouds,dailyrainin,SolarRadiationWatts/m^2,SoftwareType,DateUTC
2017-08-19 00:04:00,63.2,58.6,29.80,North,5,0.0,0.0,85,0.00,,,0.00,0,Wunderground v.1.15,2017-08-19 05:04:00,
2017-08-19 00:10:00,63.1,58.5,29.80,North,5,0.0,0.0,85,0.00,,,0.00,0,Wunderground v.1.15,2017-08-19 05:10:00,
2017-08-19 00:15:00,62.9,58.3,29.80,North,5,0.0,0.0,85,0.00,,,0.00,0,Wunderground v.1.15,2017-08-19 05:15:00,
2017-08-19 00:21:00,62.7,58.1,29.80,North,5,0.0,0.0,85,0.00,,,0.00,0,Wunderground v.1.15,2017-08-19 05:21:00,
2017-08-19 00:27:00,62.7,58.1,29.80,North,5,0.0,0.0,85,0.00,,,0.00,0,Wunderground v.1.15,2017-08-19 05:27:00,
2017-08-19 00:32:00,62.5,57.9,29.80,North,5,0.0,0.0,85,0.00,,,0.00,0,Wunderground v.1.15,2017-08-19 05:32:00,
2017-08-19 00:38:00,62.1,57.5,29.80,North,5,0.0,0.0,85,0.00,,,0.00,0,Wunderground v.1.15,2017-08-19 05:38:00,
2017-08-19 00:44:00,61.8,57.6,29.80,North,5,0.0,0.0,86,0.00,,,0.00,0,Wunderground v.1.15,2017-08-19 05:44:00,
2017-08-19 00:50:00,61.1,56.6,29.80,North,5,0.0,0.0,85,0.00,,,0.00,0,Wunderground v.1.15,2017-08-19 05:50:00,
2017-08-19 00:56:00,60.7,56.5,29.80,North,5,0.0,0.0,86,0.00,,,0.00,0,Wunderground v.1.15,2017-08-19 05:56:00,
2017-08-19 01:02:00,60.7,56.8,29.80,North,5,0.0,0.0,87,0.00,,,0.00,0,Wunderground v.1.15,2017-08-19 06:02:00,
2017-08-19 01:08:00,60.3,56.4,29.80,North,5,0.0,0.0,87,0.00,,,0.00,0,Wunderground v.1.15,2017-08-19 06:08:00,
2017-08-19 01:13:00,59.5,55.6,29.80,North,5,0.0,0.0,87,0.00,,,0.00,0,Wunderground v.1.15,2017-08-19 06:13:00,
2017-08-19 01:19:00,59.2,55.6,29.80,North,5,0.0,0.0,88,0.00,,,0.00,0,Wunderground v.1.15,2017-08-19 06:19:00,
2017-08-19 01:25:00,58.4,54.5,29.80,North,5,0.0,0.0,87,0.00,,,0.00,0,Wunderground v.1.15,2017-08-19 06:25:00,
2017-08-19 01:31:00,58.1,54.6,29.80,North,5,0.0,0.0,88,0.00,,,0.00,0,Wunderground v.1.15,2017-08-19 06:31:00,
2017-08-19 01:36:00,58.4,54.9,29.80,North,5,0.0,0.0,88,0.00,,,0.00,0,Wunderground v.1.15,2017-08-19 06:36:00,
2017-08-19 01:42:00,58.7,55.2,29.80,SSW,196,6.0,6.0,88,0.00,,,0.00,0,Wunderground v.1.15,2017-08-19 06:42:00,
2017-08-19 01:48:00,58.8,55.3,29.81,SSW,196,2.0,6.0,88,0.00,,,0.00,0,Wunderground v.1.15,2017-08-19 06:48:00,
2017-08-19 01:53:00,58.6,55.1,29.80,SSW,196,1.0,5.0,88,0.00,,,0.00,0,Wunderground v.1.15,2017-08-19 06:53:00,
2017-08-19 01:59:00,58.2,54.7,29.80,SSW,202,0.0,5.0,88,0.00,,,0.00,0,Wunderground v.1.15,2017-08-19 06:59:00,
2017-08-19 02:03:00,58.1,54.6,29.80,SSW,202,0.0,1.0,88,0.00,,,0.00,0,Wunderground v.1.15,2017-08-19 07:03:00,
2017-08-19 02:09:00,58.0,54.5,29.80,SSW,202,0.0,1.0,88,0.00,,,0.00,0,Wunderground v.1.15,2017-08-19 07:09:00,
2017-08-19 02:14:00,57.8,54.3,29.80,SSW,202,0.0,0.0,88,0.00,,,0.00,0,Wunderground v.1.15,2017-08-19 07:14:00,
2017-08-19 02:19:00,57.4,54.2,29.80,SSW,202,0.0,0.0,89,0.00,,,0.00,0,Wunderground v.1.15,2017-08-19 07:19:00,
2017-08-19 02:24:00,57.0,53.5,29.80,SSW,202,0.0,0.0,88,0.00,,,0.00,0,Wunderground v.1.15,2017-08-19 07:24:00,
2017-08-19 02:29:00,56.9,53.7,29.80,SSW,202,0.0,0.0,89,0.00,,,0.00,0,Wunderground v.1.15,2017-08-19 07:29:00,
2017-08-19 02:34:00,56.5,53.3,29.80,SSW,202,0.0,0.0,89,0.00,,,0.00,0,Wunderground v.1.15,2017-08-19 07:34:00,
2017-08-19 02:39:00,56.3,53.1,29.80,SSW,202,1.0,1.0,89,0.00,,,0.00,0,Wunderground v.1.15,2017-08-19 07:39:00,
2017-08-19 02:44:00,56.5,53.3,29.80,SSW,202,3.0,5.0,89,0.00,,,0.00,0,Wunderground v.1.15,2017-08-19 07:44:00,
2017-08-19 02:49:00,56.8,53.6,29.80,SSW,202,0.0,5.0,89,0.00,,,0.00,0,Wunderground v.1.15,2017-08-19 07:49:00,
2017-08-19 02:54:00,56.7,53.5,29.80,SSW,202,0.0,1.0,89,0.00,,,0.00,0,Wunderground v.1.15,2017-08-19 07:54:00,
2017-08-19 02:59:00,56.3,53.1,29.80,SSW,202,0.0,1.0,89,0.00,,,0.00,0,Wunderground v.1.15,2017-08-19 07:59:00,
2017-08-19 03:04:00,55.9,52.7,29.80,SSW,202,0.0,0.0,89,0.00,,,0.00,0,Wunderground v.1.15,2017-08-19 08:04:00,
2017-08-19 03:09:00,55.5,52.3,29.80,SSW,202,0.0,1.0,89,0.00,,,0.00,0,Wunderground v.1.15,2017-08-19 08:09:00,
2017-08-19 03:14:00,55.4,52.2,29.80,SSW,202,1.0,1.0,89,0.00,,,0.00,0,Wunderground v.1.15,2017-08-19 08:14:00,
2017-08-19 03:19:00,55.4,52.2,29.80,SSW,202,0.0,2.0,89,0.00,,,0.00,0,Wunderground v.1.15,2017-08-19 08:19:00,
2017-08-19 03:24:00,55.9,52.7,29.80,SSW,202,0.0,1.0,89,0.00,,,0.00,0,Wunderground v.1.15,2017-08-19 08:24:00,
2017-08-19 03:29:00,56.0,52.8,29.79,SSW,202,0.0,1.0,89,0.00,,,0.00,0,Wunderground v.1.15,2017-08-19 08:29:00,
2017-08-19 03:34:00,56.1,52.9,29.79,SSW,202,0.0,0.0,89,0.00,,,0.00,0,Wunderground v.1.15,2017-08-19 08:34:00,
2017-08-19 03:39:00,55.5,52.3,29.80,SSW,202,0.0,0.0,89,0.00,,,0.00,0,Wunderground v.1.15,2017-08-19 08:39:00,
2017-08-19 03:44:00,55.1,51.9,29.80,SSW,202,0.0,0.0,89,0.00,,,0.00,0,Wunderground v.1.15,2017-08-19 08:44:00,
2017-08-19 03:49:00,55.0,51.8,29.80,SSW,202,0.0,0.0,89,0.00,,,0.00,0,Wunderground v.1.15,2017-08-19 08:49:00,
2017-08-19 03:55:00,54.9,51.7,29.79,SSW,202,0.0,0.0,89,0.00,,,0.00,0,Wunderground v.1.15,2017-08-19 08:55:00,
2017-08-19 04:00:00,54.9,51.7,29.79,SSW,202,0.0,0.0,89,0.00,,,0.00,0,Wunderground v.1.15,2017-08-19 09:00:00,
2017-08-19 04:05:00,54.9,51.7,29.79,SSW,202,0.0,0.0,89,0.00,,,0.00,0,Wunderground v.1.15,2017-08-19 09:05:00,
2017-08-19 04:10:00,54.9,51.7,29.79,SSW,202,1.0,1.0,89,0.00,,,0.00,0,Wunderground v.1.15,2017-08-19 09:10:00,
2017-08-19 04:15:00,55.2,52.0,29.78,SSW,202,0.0,1.0,89,0.00,,,0.00,0,Wunderground v.1.15,2017-08-19 09:15:00,
2017-08-19 04:20:00,55.4,52.2,29.78,SSW,202,0.0,0.0,89,0.00,,,0.00,0,Wunderground v.1.15,2017-08-19 09:20:00,
2017-08-19 04:25:00,55.3,52.1,29.78,SSW,202,0.0,0.0,89,0.00,,,0.00,0,Wunderground v.1.15,2017-08-19 09:25:00,
2017-08-19 04:30:00,55.1,51.9,29.78,SSW,202,0.0,0.0,89,0.00,,,0.00,0,Wunderground v.1.15,2017-08-19 09:30:00,
2017-08-19 04:35:00,54.8,51.6,29.78,SSW,202,0.0,0.0,89,0.00,,,0.00,0,Wunderground v.1.15,2017-08-19 09:35:00,
2017-08-19 04:40:00,54.6,51.4,29.78,SSW,202,0.0,0.0,89,0.00,,,0.00,0,Wunderground v.1.15,2017-08-19 09:40:00,
2017-08-19 04:45:00,54.3,51.1,29.78,SSW,202,0.0,0.0,89,0.00,,,0.00,0,Wunderground v.1.15,2017-08-19 09:45:00,
2017-08-19 04:50:00,54.1,50.9,29.78,SSW,202,0.0,1.0,89,0.00,,,0.00,0,Wunderground v.1.15,2017-08-19 09:50:00,
2017-08-19 04:55:00,53.7,50.5,29.78,SSW,202,2.0,2.0,89,0.00,,,0.00,0,Wunderground v.1.15,2017-08-19 09:55:00,
2017-08-19 05:00:00,54.3,51.1,29.78,SSW,202,0.0,1.0,89,0.00,,,0.00,0,Wunderground v.1.15,2017-08-19 10:00:00,
2017-08-19 05:05:00,54.0,50.8,29.78,SSW,202,2.0,3.0,89,0.00,,,0.00,0,Wunderground v.1.15,2017-08-19 10:05:00,
2017-08-19 05:10:00,53.5,50.3,29.78,SSW,202,0.0,0.0,89,0.00,,,0.00,0,Wunderground v.1.15,2017-08-19 10:10:00,
2017-08-19 05:15:00,53.3,50.1,29.78,SSW,202,0.0,0.0,89,0.00,,,0.00,0,Wunderground v.1.15,2017-08-19 10:15:00,
2017-08-19 05:20:00,53.3,50.1,29.78,SSW,202,0.0,0.0,89,0.00,,,0.00,0,Wunderground v.1.15,2017-08-19 10:20:00,
2017-08-19 05:25:00,53.8,50.6,29.78,SSW,202,0.0,0.0,89,0.00,,,0.00,0,Wunderground v.1.15,2017-08-19 10:25:00,
2017-08-19 05:30:00,53.9,50.7,29.78,SSW,202,0.0,0.0,89,0.00,,,0.00,0,Wunderground v.1.15,2017-08-19 10:30:00,
2017-08-19 05:35:00,53.9,50.7,29.78,SSW,202,0.0,0.0,89,0.00,,,0.00,0,Wunderground v.1.15,2017-08-19 10:35:00,